sensor_id;sensor_type;location;lat;lon;timestamp;temperature;humidity
47600;DHT22;33323;52.124;6.018;2023-03-13T00:03:48;8.60;99.90
47600;DHT22;33323;52.124;6.018;2023-03-13T00:06:16;8.60;99.90
47600;DHT22;33323;52.124;6.018;2023-03-13T00:08:43;8.60;99.90
47600;DHT22;33323;52.124;6.018;2023-03-13T00:11:12;8.60;99.90
47600;DHT22;33323;52.124;6.018;2023-03-13T00:13:43;8.60;99.90
47600;DHT22;33323;52.124;6.018;2023-03-13T00:16:13;8.60;99.90
47600;DHT22;33323;52.124;6.018;2023-03-13T00:18:45;8.50;99.90
47600;DHT22;33323;52.124;6.018;2023-03-13T00:21:14;8.50;99.90
47600;DHT22;33323;52.124;6.018;2023-03-13T00:23:41;8.50;99.90
47600;DHT22;33323;52.124;6.018;2023-03-13T00:26:11;8.50;99.90
47600;DHT22;33323;52.124;6.018;2023-03-13T00:28:40;8.50;99.90
47600;DHT22;33323;52.124;6.018;2023-03-13T00:31:13;8.50;99.90
47600;DHT22;33323;52.124;6.018;2023-03-13T00:33:43;8.50;99.90
47600;DHT22;33323;52.124;6.018;2023-03-13T00:36:13;8.50;99.90
47600;DHT22;33323;52.124;6.018;2023-03-13T00:38:43;8.50;99.90
47600;DHT22;33323;52.124;6.018;2023-03-13T00:41:12;8.50;99.90
47600;DHT22;33323;52.124;6.018;2023-03-13T00:43:42;8.50;99.90
47600;DHT22;33323;52.124;6.018;2023-03-13T00:46:11;8.60;99.90
47600;DHT22;33323;52.124;6.018;2023-03-13T00:48:39;8.50;99.90
47600;DHT22;33323;52.124;6.018;2023-03-13T00:51:06;8.50;99.90
47600;DHT22;33323;52.124;6.018;2023-03-13T00:53:34;8.50;99.90
47600;DHT22;33323;52.124;6.018;2023-03-13T00:56:12;8.50;99.90
47600;DHT22;33323;52.124;6.018;2023-03-13T00:58:42;8.50;99.90
47600;DHT22;33323;52.124;6.018;2023-03-13T01:01:11;8.50;99.90
47600;DHT22;33323;52.124;6.018;2023-03-13T01:03:39;8.50;99.90
47600;DHT22;33323;52.124;6.018;2023-03-13T01:06:10;8.50;99.90
47600;DHT22;33323;52.124;6.018;2023-03-13T01:08:39;8.50;99.90
47600;DHT22;33323;52.124;6.018;2023-03-13T01:11:11;8.50;99.90
47600;DHT22;33323;52.124;6.018;2023-03-13T01:13:44;8.50;99.90
47600;DHT22;33323;52.124;6.018;2023-03-13T01:16:17;8.50;99.90
47600;DHT22;33323;52.124;6.018;2023-03-13T01:18:48;8.50;99.90
47600;DHT22;33323;52.124;6.018;2023-03-13T01:21:18;8.50;99.90
47600;DHT22;33323;52.124;6.018;2023-03-13T01:23:46;8.50;99.90
47600;DHT22;33323;52.124;6.018;2023-03-13T01:26:14;8.50;99.90
47600;DHT22;33323;52.124;6.018;2023-03-13T01:28:41;8.50;99.90
47600;DHT22;33323;52.124;6.018;2023-03-13T01:31:20;8.60;99.90
47600;DHT22;33323;52.124;6.018;2023-03-13T01:33:52;8.60;99.90
47600;DHT22;33323;52.124;6.018;2023-03-13T01:36:20;8.60;99.90
47600;DHT22;33323;52.124;6.018;2023-03-13T01:38:53;8.60;99.90
47600;DHT22;33323;52.124;6.018;2023-03-13T01:41:22;8.70;99.90
47600;DHT22;33323;52.124;6.018;2023-03-13T01:43:50;8.70;99.90
47600;DHT22;33323;52.124;6.018;2023-03-13T01:46:19;8.70;99.90
47600;DHT22;33323;52.124;6.018;2023-03-13T01:49:08;8.70;99.90
47600;DHT22;33323;52.124;6.018;2023-03-13T01:51:54;8.80;99.90
47600;DHT22;33323;52.124;6.018;2023-03-13T01:54:37;8.70;99.90
47600;DHT22;33323;52.124;6.018;2023-03-13T01:57:46;8.80;99.90
47600;DHT22;33323;52.124;6.018;2023-03-13T02:00:22;8.80;99.90
47600;DHT22;33323;52.124;6.018;2023-03-13T02:02:54;8.90;99.90
47600;DHT22;33323;52.124;6.018;2023-03-13T02:05:25;8.90;99.90
47600;DHT22;33323;52.124;6.018;2023-03-13T02:07:58;8.90;99.90
47600;DHT22;33323;52.124;6.018;2023-03-13T02:10:30;8.90;99.90
47600;DHT22;33323;52.124;6.018;2023-03-13T02:13:00;9.00;99.90
47600;DHT22;33323;52.124;6.018;2023-03-13T02:15:29;9.00;99.90
47600;DHT22;33323;52.124;6.018;2023-03-13T02:17:57;9.10;99.90
47600;DHT22;33323;52.124;6.018;2023-03-13T02:20:25;9.00;99.90
47600;DHT22;33323;52.124;6.018;2023-03-13T02:25:47;9.10;99.90
47600;DHT22;33323;52.124;6.018;2023-03-13T02:28:24;9.10;99.90
47600;DHT22;33323;52.124;6.018;2023-03-13T02:30:55;9.10;99.90
47600;DHT22;33323;52.124;6.018;2023-03-13T02:33:29;9.10;99.90
47600;DHT22;33323;52.124;6.018;2023-03-13T02:35:59;9.20;99.90
47600;DHT22;33323;52.124;6.018;2023-03-13T02:38:31;9.20;99.90
47600;DHT22;33323;52.124;6.018;2023-03-13T02:41:01;9.20;99.90
47600;DHT22;33323;52.124;6.018;2023-03-13T02:43:33;9.20;99.90
47600;DHT22;33323;52.124;6.018;2023-03-13T02:46:08;9.30;99.90
47600;DHT22;33323;52.124;6.018;2023-03-13T02:48:48;9.30;99.90
47600;DHT22;33323;52.124;6.018;2023-03-13T02:51:37;9.30;99.90
47600;DHT22;33323;52.124;6.018;2023-03-13T02:54:19;9.40;99.90
47600;DHT22;33323;52.124;6.018;2023-03-13T02:56:51;9.40;99.90
47600;DHT22;33323;52.124;6.018;2023-03-13T02:59:23;9.40;99.90
47600;DHT22;33323;52.124;6.018;2023-03-13T03:01:51;9.40;99.90
47600;DHT22;33323;52.124;6.018;2023-03-13T03:04:19;9.40;99.90
47600;DHT22;33323;52.124;6.018;2023-03-13T03:06:52;9.50;99.90
47600;DHT22;33323;52.124;6.018;2023-03-13T03:09:20;9.50;99.90
47600;DHT22;33323;52.124;6.018;2023-03-13T03:11:51;9.60;99.90
47600;DHT22;33323;52.124;6.018;2023-03-13T03:14:18;9.60;99.90
47600;DHT22;33323;52.124;6.018;2023-03-13T03:16:46;9.60;99.90
47600;DHT22;33323;52.124;6.018;2023-03-13T03:19:14;9.70;99.90
47600;DHT22;33323;52.124;6.018;2023-03-13T03:21:41;9.80;99.90
47600;DHT22;33323;52.124;6.018;2023-03-13T03:24:08;9.80;99.90
47600;DHT22;33323;52.124;6.018;2023-03-13T03:26:36;9.80;99.90
47600;DHT22;33323;52.124;6.018;2023-03-13T03:29:09;9.90;99.90
47600;DHT22;33323;52.124;6.018;2023-03-13T03:31:37;9.90;99.90
47600;DHT22;33323;52.124;6.018;2023-03-13T03:34:04;9.90;99.90
47600;DHT22;33323;52.124;6.018;2023-03-13T03:36:31;10.00;99.90
47600;DHT22;33323;52.124;6.018;2023-03-13T03:38:59;10.00;99.90
47600;DHT22;33323;52.124;6.018;2023-03-13T03:41:27;10.00;99.90
47600;DHT22;33323;52.124;6.018;2023-03-13T03:43:55;10.10;99.90
47600;DHT22;33323;52.124;6.018;2023-03-13T03:46:26;10.10;99.90
47600;DHT22;33323;52.124;6.018;2023-03-13T03:48:55;10.20;99.90
47600;DHT22;33323;52.124;6.018;2023-03-13T03:51:23;10.20;99.90
47600;DHT22;33323;52.124;6.018;2023-03-13T03:53:50;10.30;99.90
47600;DHT22;33323;52.124;6.018;2023-03-13T03:56:17;10.30;99.90
47600;DHT22;33323;52.124;6.018;2023-03-13T03:58:49;10.30;99.90
47600;DHT22;33323;52.124;6.018;2023-03-13T04:01:23;10.30;99.90
47600;DHT22;33323;52.124;6.018;2023-03-13T04:03:51;10.30;99.90
47600;DHT22;33323;52.124;6.018;2023-03-13T04:06:18;10.40;99.90
47600;DHT22;33323;52.124;6.018;2023-03-13T04:08:46;10.40;99.90
47600;DHT22;33323;52.124;6.018;2023-03-13T04:11:16;10.50;99.90
47600;DHT22;33323;52.124;6.018;2023-03-13T04:13:48;10.40;99.90
47600;DHT22;33323;52.124;6.018;2023-03-13T04:16:15;10.50;99.90
47600;DHT22;33323;52.124;6.018;2023-03-13T04:18:44;10.50;99.90
47600;DHT22;33323;52.124;6.018;2023-03-13T04:21:11;10.50;99.90
47600;DHT22;33323;52.124;6.018;2023-03-13T04:23:43;10.50;99.90
47600;DHT22;33323;52.124;6.018;2023-03-13T04:26:12;10.50;99.90
47600;DHT22;33323;52.124;6.018;2023-03-13T04:28:40;10.60;99.90
47600;DHT22;33323;52.124;6.018;2023-03-13T04:31:08;10.70;99.90
47600;DHT22;33323;52.124;6.018;2023-03-13T04:34:05;10.70;99.90
47600;DHT22;33323;52.124;6.018;2023-03-13T04:36:51;10.70;99.90
47600;DHT22;33323;52.124;6.018;2023-03-13T04:39:37;10.70;99.90
47600;DHT22;33323;52.124;6.018;2023-03-13T04:42:19;10.80;99.90
47600;DHT22;33323;52.124;6.018;2023-03-13T04:45:05;10.80;99.90
47600;DHT22;33323;52.124;6.018;2023-03-13T04:47:56;10.80;99.90
47600;DHT22;33323;52.124;6.018;2023-03-13T04:50:37;10.90;99.90
47600;DHT22;33323;52.124;6.018;2023-03-13T04:53:13;10.90;99.90
47600;DHT22;33323;52.124;6.018;2023-03-13T04:56:00;10.90;99.90
47600;DHT22;33323;52.124;6.018;2023-03-13T04:58:46;11.00;99.90
47600;DHT22;33323;52.124;6.018;2023-03-13T05:01:31;11.00;99.90
47600;DHT22;33323;52.124;6.018;2023-03-13T05:04:22;11.00;99.90
47600;DHT22;33323;52.124;6.018;2023-03-13T05:07:11;11.00;99.90
47600;DHT22;33323;52.124;6.018;2023-03-13T05:09:57;11.00;99.90
47600;DHT22;33323;52.124;6.018;2023-03-13T05:13:00;11.00;99.90
47600;DHT22;33323;52.124;6.018;2023-03-13T05:15:43;11.10;99.90
47600;DHT22;33323;52.124;6.018;2023-03-13T05:18:29;11.10;99.90
47600;DHT22;33323;52.124;6.018;2023-03-13T05:21:05;11.10;99.90
47600;DHT22;33323;52.124;6.018;2023-03-13T05:23:47;11.10;99.90
47600;DHT22;33323;52.124;6.018;2023-03-13T05:26:35;11.20;99.90
47600;DHT22;33323;52.124;6.018;2023-03-13T05:29:25;11.30;99.90
47600;DHT22;33323;52.124;6.018;2023-03-13T05:32:11;11.20;99.90
47600;DHT22;33323;52.124;6.018;2023-03-13T05:34:56;11.30;99.90
47600;DHT22;33323;52.124;6.018;2023-03-13T05:37:37;11.30;99.90
47600;DHT22;33323;52.124;6.018;2023-03-13T05:40:33;11.20;99.90
47600;DHT22;33323;52.124;6.018;2023-03-13T05:43:10;11.30;99.90
47600;DHT22;33323;52.124;6.018;2023-03-13T05:45:57;11.30;99.90
47600;DHT22;33323;52.124;6.018;2023-03-13T05:48:53;11.30;99.90
47600;DHT22;33323;52.124;6.018;2023-03-13T05:51:39;11.30;99.90
47600;DHT22;33323;52.124;6.018;2023-03-13T05:54:24;11.30;99.90
47600;DHT22;33323;52.124;6.018;2023-03-13T05:57:15;11.30;99.90
47600;DHT22;33323;52.124;6.018;2023-03-13T06:00:01;11.40;99.90
47600;DHT22;33323;52.124;6.018;2023-03-13T06:02:53;11.50;99.90
47600;DHT22;33323;52.124;6.018;2023-03-13T06:05:28;11.50;99.90
47600;DHT22;33323;52.124;6.018;2023-03-13T06:07:56;11.40;99.90
47600;DHT22;33323;52.124;6.018;2023-03-13T06:10:23;11.40;99.90
47600;DHT22;33323;52.124;6.018;2023-03-13T06:12:54;11.50;99.90
47600;DHT22;33323;52.124;6.018;2023-03-13T06:15:26;11.40;99.90
47600;DHT22;33323;52.124;6.018;2023-03-13T06:18:07;11.40;99.90
47600;DHT22;33323;52.124;6.018;2023-03-13T06:20:35;11.50;99.90
47600;DHT22;33323;52.124;6.018;2023-03-13T06:23:01;11.50;99.90
47600;DHT22;33323;52.124;6.018;2023-03-13T06:25:28;11.50;99.90
47600;DHT22;33323;52.124;6.018;2023-03-13T06:27:56;11.60;99.90
47600;DHT22;33323;52.124;6.018;2023-03-13T06:30:23;11.50;99.90
47600;DHT22;33323;52.124;6.018;2023-03-13T06:32:49;11.50;99.90
47600;DHT22;33323;52.124;6.018;2023-03-13T06:35:17;11.50;99.90
47600;DHT22;33323;52.124;6.018;2023-03-13T06:37:44;11.50;99.90
47600;DHT22;33323;52.124;6.018;2023-03-13T06:40:11;11.50;99.90
47600;DHT22;33323;52.124;6.018;2023-03-13T06:42:38;11.50;99.90
47600;DHT22;33323;52.124;6.018;2023-03-13T06:45:06;11.60;99.90
47600;DHT22;33323;52.124;6.018;2023-03-13T06:47:33;11.70;99.90
47600;DHT22;33323;52.124;6.018;2023-03-13T06:50:00;11.70;99.90
47600;DHT22;33323;52.124;6.018;2023-03-13T06:52:27;11.70;99.90
47600;DHT22;33323;52.124;6.018;2023-03-13T06:55:09;11.70;99.90
47600;DHT22;33323;52.124;6.018;2023-03-13T06:57:37;11.70;99.90
47600;DHT22;33323;52.124;6.018;2023-03-13T07:00:04;11.70;99.90
47600;DHT22;33323;52.124;6.018;2023-03-13T07:02:32;11.80;99.90
47600;DHT22;33323;52.124;6.018;2023-03-13T07:04:59;11.80;99.90
47600;DHT22;33323;52.124;6.018;2023-03-13T07:07:31;11.80;99.90
47600;DHT22;33323;52.124;6.018;2023-03-13T07:10:01;11.80;99.90
47600;DHT22;33323;52.124;6.018;2023-03-13T07:12:29;11.90;99.90
47600;DHT22;33323;52.124;6.018;2023-03-13T07:14:56;11.90;99.90
47600;DHT22;33323;52.124;6.018;2023-03-13T07:17:23;11.90;99.90
47600;DHT22;33323;52.124;6.018;2023-03-13T07:19:50;12.00;99.90
47600;DHT22;33323;52.124;6.018;2023-03-13T07:22:17;12.00;99.90
47600;DHT22;33323;52.124;6.018;2023-03-13T07:24:44;12.00;99.90
47600;DHT22;33323;52.124;6.018;2023-03-13T07:27:12;12.00;99.90
47600;DHT22;33323;52.124;6.018;2023-03-13T07:29:39;12.10;99.90
47600;DHT22;33323;52.124;6.018;2023-03-13T07:32:07;12.10;99.90
47600;DHT22;33323;52.124;6.018;2023-03-13T07:34:34;12.10;99.90
47600;DHT22;33323;52.124;6.018;2023-03-13T07:37:01;12.10;99.90
47600;DHT22;33323;52.124;6.018;2023-03-13T07:39:28;12.10;99.90
47600;DHT22;33323;52.124;6.018;2023-03-13T07:41:56;12.20;99.90
47600;DHT22;33323;52.124;6.018;2023-03-13T07:44:23;12.20;99.90
47600;DHT22;33323;52.124;6.018;2023-03-13T07:46:50;12.30;99.90
47600;DHT22;33323;52.124;6.018;2023-03-13T07:49:18;12.30;99.90
47600;DHT22;33323;52.124;6.018;2023-03-13T07:51:45;12.20;99.90
47600;DHT22;33323;52.124;6.018;2023-03-13T07:54:13;12.30;99.90
47600;DHT22;33323;52.124;6.018;2023-03-13T07:56:40;12.30;99.90
47600;DHT22;33323;52.124;6.018;2023-03-13T07:59:08;12.30;99.90
47600;DHT22;33323;52.124;6.018;2023-03-13T08:01:35;12.30;99.90
47600;DHT22;33323;52.124;6.018;2023-03-13T08:04:03;12.20;99.90
47600;DHT22;33323;52.124;6.018;2023-03-13T08:06:32;12.20;99.90
47600;DHT22;33323;52.124;6.018;2023-03-13T08:09:03;12.10;99.90
47600;DHT22;33323;52.124;6.018;2023-03-13T08:11:31;12.10;99.90
47600;DHT22;33323;52.124;6.018;2023-03-13T08:13:58;12.10;99.90
47600;DHT22;33323;52.124;6.018;2023-03-13T08:16:28;12.00;99.90
47600;DHT22;33323;52.124;6.018;2023-03-13T08:18:57;12.00;99.90
47600;DHT22;33323;52.124;6.018;2023-03-13T08:21:30;12.00;99.90
47600;DHT22;33323;52.124;6.018;2023-03-13T08:24:00;12.10;99.90
47600;DHT22;33323;52.124;6.018;2023-03-13T08:26:33;12.20;99.90
47600;DHT22;33323;52.124;6.018;2023-03-13T08:29:05;12.20;99.90
47600;DHT22;33323;52.124;6.018;2023-03-13T08:31:36;12.20;99.90
47600;DHT22;33323;52.124;6.018;2023-03-13T08:34:04;12.30;99.90
47600;DHT22;33323;52.124;6.018;2023-03-13T08:36:34;12.40;99.90
47600;DHT22;33323;52.124;6.018;2023-03-13T08:39:05;12.50;99.90
47600;DHT22;33323;52.124;6.018;2023-03-13T08:41:43;12.40;99.90
47600;DHT22;33323;52.124;6.018;2023-03-13T08:44:13;12.40;99.90
47600;DHT22;33323;52.124;6.018;2023-03-13T08:46:41;12.50;99.90
47600;DHT22;33323;52.124;6.018;2023-03-13T08:49:10;12.60;99.90
47600;DHT22;33323;52.124;6.018;2023-03-13T08:51:38;12.70;99.90
47600;DHT22;33323;52.124;6.018;2023-03-13T08:54:06;12.60;99.90
47600;DHT22;33323;52.124;6.018;2023-03-13T08:56:34;12.60;99.90
47600;DHT22;33323;52.124;6.018;2023-03-13T08:59:02;12.60;99.90
47600;DHT22;33323;52.124;6.018;2023-03-13T09:01:32;12.60;99.90
47600;DHT22;33323;52.124;6.018;2023-03-13T09:04:01;12.80;99.90
47600;DHT22;33323;52.124;6.018;2023-03-13T09:06:36;12.90;99.90
47600;DHT22;33323;52.124;6.018;2023-03-13T09:09:05;12.90;99.90
47600;DHT22;33323;52.124;6.018;2023-03-13T09:11:33;12.90;99.90
47600;DHT22;33323;52.124;6.018;2023-03-13T09:14:01;12.90;99.90
47600;DHT22;33323;52.124;6.018;2023-03-13T09:16:30;12.90;99.90
47600;DHT22;33323;52.124;6.018;2023-03-13T09:18:58;13.00;99.90
47600;DHT22;33323;52.124;6.018;2023-03-13T09:21:28;13.00;99.90
47600;DHT22;33323;52.124;6.018;2023-03-13T09:23:57;13.00;99.90
47600;DHT22;33323;52.124;6.018;2023-03-13T09:26:26;13.10;99.90
47600;DHT22;33323;52.124;6.018;2023-03-13T09:28:54;13.10;99.90
47600;DHT22;33323;52.124;6.018;2023-03-13T09:31:26;13.10;99.90
47600;DHT22;33323;52.124;6.018;2023-03-13T09:33:56;13.10;99.90
47600;DHT22;33323;52.124;6.018;2023-03-13T09:36:24;13.10;99.90
47600;DHT22;33323;52.124;6.018;2023-03-13T09:38:53;13.10;99.90
47600;DHT22;33323;52.124;6.018;2023-03-13T09:44:41;13.20;99.90
47600;DHT22;33323;52.124;6.018;2023-03-13T09:47:24;13.40;99.90
47600;DHT22;33323;52.124;6.018;2023-03-13T09:50:04;13.70;99.90
47600;DHT22;33323;52.124;6.018;2023-03-13T09:52:53;14.10;99.90
47600;DHT22;33323;52.124;6.018;2023-03-13T09:55:27;14.10;99.90
47600;DHT22;33323;52.124;6.018;2023-03-13T09:58:21;14.10;99.90
47600;DHT22;33323;52.124;6.018;2023-03-13T10:03:26;13.90;99.90
47600;DHT22;33323;52.124;6.018;2023-03-13T10:05:59;13.80;99.90
47600;DHT22;33323;52.124;6.018;2023-03-13T10:08:30;14.00;99.90
47600;DHT22;33323;52.124;6.018;2023-03-13T10:16:31;14.40;99.90
47600;DHT22;33323;52.124;6.018;2023-03-13T10:19:15;14.30;99.90
47600;DHT22;33323;52.124;6.018;2023-03-13T10:21:48;14.20;99.90
47600;DHT22;33323;52.124;6.018;2023-03-13T10:27:31;14.50;99.90
47600;DHT22;33323;52.124;6.018;2023-03-13T10:29:58;14.60;99.90
47600;DHT22;33323;52.124;6.018;2023-03-13T10:32:26;14.50;99.90
47600;DHT22;33323;52.124;6.018;2023-03-13T10:35:00;14.50;99.90
47600;DHT22;33323;52.124;6.018;2023-03-13T10:37:31;14.50;99.90
47600;DHT22;33323;52.124;6.018;2023-03-13T10:40:26;14.50;99.90
47600;DHT22;33323;52.124;6.018;2023-03-13T10:43:00;14.70;99.90
47600;DHT22;33323;52.124;6.018;2023-03-13T10:45:35;14.70;99.90
47600;DHT22;33323;52.124;6.018;2023-03-13T10:48:14;14.70;99.90
47600;DHT22;33323;52.124;6.018;2023-03-13T10:50:47;14.70;99.90
47600;DHT22;33323;52.124;6.018;2023-03-13T10:53:31;14.90;99.90
47600;DHT22;33323;52.124;6.018;2023-03-13T10:56:09;15.20;99.90
47600;DHT22;33323;52.124;6.018;2023-03-13T10:58:44;15.70;99.90
47600;DHT22;33323;52.124;6.018;2023-03-13T11:01:21;15.60;99.90
47600;DHT22;33323;52.124;6.018;2023-03-13T11:03:55;15.50;99.90
47600;DHT22;33323;52.124;6.018;2023-03-13T11:08:59;15.20;99.90
47600;DHT22;33323;52.124;6.018;2023-03-13T11:11:29;15.10;99.90
47600;DHT22;33323;52.124;6.018;2023-03-13T11:14:07;15.10;99.90
47600;DHT22;33323;52.124;6.018;2023-03-13T11:16:45;15.30;99.90
47600;DHT22;33323;52.124;6.018;2023-03-13T11:19:32;15.50;99.90
47600;DHT22;33323;52.124;6.018;2023-03-13T11:25:15;15.90;99.90
47600;DHT22;33323;52.124;6.018;2023-03-13T11:31:32;15.50;99.90
47600;DHT22;33323;52.124;6.018;2023-03-13T11:34:21;15.50;99.90
47600;DHT22;33323;52.124;6.018;2023-03-13T11:37:14;15.40;99.90
47600;DHT22;33323;52.124;6.018;2023-03-13T11:49:10;16.10;99.90
47600;DHT22;33323;52.124;6.018;2023-03-13T11:57:30;16.30;99.90
47600;DHT22;33323;52.124;6.018;2023-03-13T12:00:46;16.40;99.90
47600;DHT22;33323;52.124;6.018;2023-03-13T12:03:45;16.10;99.90
47600;DHT22;33323;52.124;6.018;2023-03-13T12:06:30;16.10;99.90
47600;DHT22;33323;52.124;6.018;2023-03-13T12:09:14;16.20;99.90
47600;DHT22;33323;52.124;6.018;2023-03-13T12:14:25;16.20;99.90
47600;DHT22;33323;52.124;6.018;2023-03-13T12:17:03;16.20;99.90
47600;DHT22;33323;52.124;6.018;2023-03-13T12:19:38;16.30;99.90
47600;DHT22;33323;52.124;6.018;2023-03-13T12:22:40;16.50;99.90
47600;DHT22;33323;52.124;6.018;2023-03-13T12:25:13;16.70;99.90
47600;DHT22;33323;52.124;6.018;2023-03-13T12:27:52;16.90;99.90
47600;DHT22;33323;52.124;6.018;2023-03-13T12:30:44;17.00;99.90
47600;DHT22;33323;52.124;6.018;2023-03-13T12:33:23;16.90;99.90
47600;DHT22;33323;52.124;6.018;2023-03-13T12:36:08;17.10;99.90
47600;DHT22;33323;52.124;6.018;2023-03-13T12:38:45;16.90;99.90
47600;DHT22;33323;52.124;6.018;2023-03-13T12:41:33;17.00;99.90
47600;DHT22;33323;52.124;6.018;2023-03-13T12:44:19;17.10;99.90
47600;DHT22;33323;52.124;6.018;2023-03-13T12:47:17;17.20;99.90
47600;DHT22;33323;52.124;6.018;2023-03-13T12:50:06;17.40;99.90
47600;DHT22;33323;52.124;6.018;2023-03-13T12:58:28;17.20;99.90
47600;DHT22;33323;52.124;6.018;2023-03-13T13:01:05;17.30;99.90
47600;DHT22;33323;52.124;6.018;2023-03-13T13:03:36;17.40;99.90
47600;DHT22;33323;52.124;6.018;2023-03-13T13:06:06;17.50;99.90
47600;DHT22;33323;52.124;6.018;2023-03-13T13:08:41;17.40;99.90
47600;DHT22;33323;52.124;6.018;2023-03-13T13:16:47;17.40;99.90
47600;DHT22;33323;52.124;6.018;2023-03-13T13:32:47;17.10;99.90
47600;DHT22;33323;52.124;6.018;2023-03-13T13:35:26;17.30;99.90
47600;DHT22;33323;52.124;6.018;2023-03-13T13:43:38;16.80;99.90
47600;DHT22;33323;52.124;6.018;2023-03-13T13:46:29;16.90;99.90
47600;DHT22;33323;52.124;6.018;2023-03-13T13:49:12;16.90;99.90
47600;DHT22;33323;52.124;6.018;2023-03-13T13:57:15;16.90;99.90
47600;DHT22;33323;52.124;6.018;2023-03-13T14:00:14;16.90;99.90
47600;DHT22;33323;52.124;6.018;2023-03-13T14:02:55;16.80;99.90
47600;DHT22;33323;52.124;6.018;2023-03-13T14:05:24;16.70;99.90
47600;DHT22;33323;52.124;6.018;2023-03-13T14:10:42;17.00;99.90
47600;DHT22;33323;52.124;6.018;2023-03-13T14:13:16;16.80;99.90
47600;DHT22;33323;52.124;6.018;2023-03-13T14:15:53;16.70;99.90
47600;DHT22;33323;52.124;6.018;2023-03-13T14:20:58;16.60;99.90
47600;DHT22;33323;52.124;6.018;2023-03-13T14:23:32;16.60;99.90
47600;DHT22;33323;52.124;6.018;2023-03-13T14:26:24;16.50;99.90
47600;DHT22;33323;52.124;6.018;2023-03-13T14:28:58;16.40;99.90
47600;DHT22;33323;52.124;6.018;2023-03-13T14:31:29;16.30;99.90
47600;DHT22;33323;52.124;6.018;2023-03-13T14:34:03;16.50;99.90
47600;DHT22;33323;52.124;6.018;2023-03-13T14:39:44;16.80;99.90
47600;DHT22;33323;52.124;6.018;2023-03-13T14:42:16;16.80;99.90
47600;DHT22;33323;52.124;6.018;2023-03-13T14:44:46;16.70;99.90
47600;DHT22;33323;52.124;6.018;2023-03-13T14:47:35;16.60;99.90
47600;DHT22;33323;52.124;6.018;2023-03-13T14:50:07;16.60;99.90
47600;DHT22;33323;52.124;6.018;2023-03-13T14:52:42;16.50;99.90
47600;DHT22;33323;52.124;6.018;2023-03-13T15:00:37;16.50;99.90
47600;DHT22;33323;52.124;6.018;2023-03-13T15:05:48;16.30;99.90
47600;DHT22;33323;52.124;6.018;2023-03-13T15:08:43;16.30;99.90
47600;DHT22;33323;52.124;6.018;2023-03-13T15:13:50;16.50;99.90
47600;DHT22;33323;52.124;6.018;2023-03-13T15:16:19;16.50;99.90
47600;DHT22;33323;52.124;6.018;2023-03-13T15:18:49;16.50;99.90
47600;DHT22;33323;52.124;6.018;2023-03-13T15:21:26;16.60;99.90
47600;DHT22;33323;52.124;6.018;2023-03-13T15:24:06;16.50;99.90
47600;DHT22;33323;52.124;6.018;2023-03-13T15:26:37;16.50;99.90
47600;DHT22;33323;52.124;6.018;2023-03-13T15:29:05;16.50;99.90
47600;DHT22;33323;52.124;6.018;2023-03-13T15:31:32;16.60;99.90
47600;DHT22;33323;52.124;6.018;2023-03-13T15:34:00;16.60;99.90
47600;DHT22;33323;52.124;6.018;2023-03-13T15:36:29;16.60;99.90
47600;DHT22;33323;52.124;6.018;2023-03-13T15:38:56;16.60;99.90
47600;DHT22;33323;52.124;6.018;2023-03-13T15:41:23;16.50;99.90
47600;DHT22;33323;52.124;6.018;2023-03-13T15:43:51;16.40;99.90
47600;DHT22;33323;52.124;6.018;2023-03-13T15:46:19;16.40;99.90
47600;DHT22;33323;52.124;6.018;2023-03-13T15:48:47;16.40;99.90
47600;DHT22;33323;52.124;6.018;2023-03-13T15:51:15;16.30;99.90
47600;DHT22;33323;52.124;6.018;2023-03-13T15:53:43;16.20;99.90
47600;DHT22;33323;52.124;6.018;2023-03-13T15:56:20;16.20;99.90
47600;DHT22;33323;52.124;6.018;2023-03-13T15:58:49;16.20;99.90
47600;DHT22;33323;52.124;6.018;2023-03-13T16:01:17;16.20;99.90
47600;DHT22;33323;52.124;6.018;2023-03-13T16:03:44;16.20;99.90
47600;DHT22;33323;52.124;6.018;2023-03-13T16:06:17;16.20;99.90
47600;DHT22;33323;52.124;6.018;2023-03-13T16:08:46;16.20;99.90
47600;DHT22;33323;52.124;6.018;2023-03-13T16:11:15;16.10;99.90
47600;DHT22;33323;52.124;6.018;2023-03-13T16:13:42;16.10;99.90
47600;DHT22;33323;52.124;6.018;2023-03-13T16:16:22;16.00;99.90
47600;DHT22;33323;52.124;6.018;2023-03-13T16:18:51;16.00;99.90
47600;DHT22;33323;52.124;6.018;2023-03-13T16:21:27;16.00;99.90
47600;DHT22;33323;52.124;6.018;2023-03-13T16:23:56;16.00;99.90
47600;DHT22;33323;52.124;6.018;2023-03-13T16:26:26;16.00;99.90
47600;DHT22;33323;52.124;6.018;2023-03-13T16:28:54;15.90;99.90
47600;DHT22;33323;52.124;6.018;2023-03-13T16:31:24;15.80;99.90
47600;DHT22;33323;52.124;6.018;2023-03-13T16:33:54;15.80;99.90
47600;DHT22;33323;52.124;6.018;2023-03-13T16:36:24;15.60;99.90
47600;DHT22;33323;52.124;6.018;2023-03-13T16:38:54;15.40;99.90
47600;DHT22;33323;52.124;6.018;2023-03-13T16:41:23;15.40;99.90
47600;DHT22;33323;52.124;6.018;2023-03-13T16:43:53;15.40;99.90
47600;DHT22;33323;52.124;6.018;2023-03-13T16:46:29;15.20;99.90
47600;DHT22;33323;52.124;6.018;2023-03-13T16:49:01;15.20;99.90
47600;DHT22;33323;52.124;6.018;2023-03-13T16:51:29;15.10;99.90
47600;DHT22;33323;52.124;6.018;2023-03-13T16:53:58;15.00;99.90
47600;DHT22;33323;52.124;6.018;2023-03-13T16:56:31;14.90;99.90
47600;DHT22;33323;52.124;6.018;2023-03-13T16:59:09;14.80;99.90
47600;DHT22;33323;52.124;6.018;2023-03-13T17:01:37;14.80;99.90
47600;DHT22;33323;52.124;6.018;2023-03-13T17:04:05;14.60;99.90
47600;DHT22;33323;52.124;6.018;2023-03-13T17:06:37;14.60;99.90
47600;DHT22;33323;52.124;6.018;2023-03-13T17:09:14;14.50;99.90
47600;DHT22;33323;52.124;6.018;2023-03-13T17:11:42;14.40;99.90
47600;DHT22;33323;52.124;6.018;2023-03-13T17:14:09;14.40;99.90
47600;DHT22;33323;52.124;6.018;2023-03-13T17:16:46;14.30;99.90
47600;DHT22;33323;52.124;6.018;2023-03-13T17:19:13;14.30;99.90
47600;DHT22;33323;52.124;6.018;2023-03-13T17:21:42;14.20;99.90
47600;DHT22;33323;52.124;6.018;2023-03-13T17:24:09;14.20;99.90
47600;DHT22;33323;52.124;6.018;2023-03-13T17:26:37;14.10;99.90
47600;DHT22;33323;52.124;6.018;2023-03-13T17:29:06;14.00;99.90
47600;DHT22;33323;52.124;6.018;2023-03-13T17:31:34;14.00;99.90
47600;DHT22;33323;52.124;6.018;2023-03-13T17:34:07;13.90;99.90
47600;DHT22;33323;52.124;6.018;2023-03-13T17:36:35;13.80;99.90
47600;DHT22;33323;52.124;6.018;2023-03-13T17:39:04;13.70;99.90
47600;DHT22;33323;52.124;6.018;2023-03-13T17:41:34;13.70;99.90
47600;DHT22;33323;52.124;6.018;2023-03-13T17:44:02;13.60;99.90
47600;DHT22;33323;52.124;6.018;2023-03-13T17:46:40;13.70;99.90
47600;DHT22;33323;52.124;6.018;2023-03-13T17:49:16;13.70;99.90
47600;DHT22;33323;52.124;6.018;2023-03-13T17:51:43;13.60;99.90
47600;DHT22;33323;52.124;6.018;2023-03-13T17:54:12;13.60;99.90
47600;DHT22;33323;52.124;6.018;2023-03-13T17:56:42;13.60;99.90